sensor_id;sensor_type;location;lat;lon;timestamp;pressure;altitude;pressure_sealevel;temperature;humidity
66547;BME280;53400;50.364;14.874;2022-11-20T00:02:21;98293.31;;;-5.56;93.99
66547;BME280;53400;50.364;14.874;2022-11-20T00:04:48;98292.53;;;-5.48;93.03
66547;BME280;53400;50.364;14.874;2022-11-20T00:07:14;98297.63;;;-5.46;93.70
66547;BME280;53400;50.364;14.874;2022-11-20T00:09:40;98282.69;;;-5.36;92.44
66547;BME280;53400;50.364;14.874;2022-11-20T00:12:06;98287.91;;;-5.54;93.52
66547;BME280;53400;50.364;14.874;2022-11-20T00:14:32;98299.28;;;-5.81;94.85
66547;BME280;53400;50.364;14.874;2022-11-20T00:16:58;98298.63;;;-6.01;95.84
66547;BME280;53400;50.364;14.874;2022-11-20T00:19:24;98307.88;;;-5.45;95.45
66547;BME280;53400;50.364;14.874;2022-11-20T00:21:51;98310.53;;;-5.63;94.73
66547;BME280;53400;50.364;14.874;2022-11-20T00:24:19;98312.59;;;-5.66;95.33
66547;BME280;53400;50.364;14.874;2022-11-20T00:26:45;98312.56;;;-5.31;94.38
66547;BME280;53400;50.364;14.874;2022-11-20T00:29:11;98320.44;;;-5.48;93.23
66547;BME280;53400;50.364;14.874;2022-11-20T00:31:37;98308.66;;;-5.88;94.42
66547;BME280;53400;50.364;14.874;2022-11-20T00:34:03;98304.78;;;-5.66;95.18
66547;BME280;53400;50.364;14.874;2022-11-20T00:36:32;98319.41;;;-5.73;95.55
66547;BME280;53400;50.364;14.874;2022-11-20T00:38:59;98312.25;;;-5.89;96.19
66547;BME280;53400;50.364;14.874;2022-11-20T00:41:26;98319.78;;;-5.68;95.67
66547;BME280;53400;50.364;14.874;2022-11-20T00:43:54;98323.22;;;-5.24;94.19
66547;BME280;53400;50.364;14.874;2022-11-20T00:46:21;98326.72;;;-5.59;93.39
66547;BME280;53400;50.364;14.874;2022-11-20T00:48:48;98322.59;;;-5.80;93.78
66547;BME280;53400;50.364;14.874;2022-11-20T00:51:16;98326.19;;;-5.98;93.84
66547;BME280;53400;50.364;14.874;2022-11-20T00:53:43;98320.50;;;-6.12;94.73
66547;BME280;53400;50.364;14.874;2022-11-20T00:56:12;98316.63;;;-6.26;94.13
66547;BME280;53400;50.364;14.874;2022-11-20T00:58:41;98319.16;;;-6.16;95.09
66547;BME280;53400;50.364;14.874;2022-11-20T01:01:09;98324.88;;;-5.23;91.66
66547;BME280;53400;50.364;14.874;2022-11-20T01:03:37;98323.41;;;-5.61;90.85
66547;BME280;53400;50.364;14.874;2022-11-20T01:06:04;98319.72;;;-5.33;89.20
66547;BME280;53400;50.364;14.874;2022-11-20T01:08:32;98323.28;;;-5.60;89.70
66547;BME280;53400;50.364;14.874;2022-11-20T01:11:00;98330.88;;;-5.66;90.30
66547;BME280;53400;50.364;14.874;2022-11-20T01:13:29;98337.28;;;-5.61;89.21
66547;BME280;53400;50.364;14.874;2022-11-20T01:16:05;98334.31;;;-5.66;89.14
66547;BME280;53400;50.364;14.874;2022-11-20T01:18:32;98343.78;;;-5.65;89.73
66547;BME280;53400;50.364;14.874;2022-11-20T01:21:00;98344.22;;;-5.69;90.07
66547;BME280;53400;50.364;14.874;2022-11-20T01:23:30;98330.50;;;-5.89;91.18
66547;BME280;53400;50.364;14.874;2022-11-20T01:25:56;98337.34;;;-5.88;92.72
66547;BME280;53400;50.364;14.874;2022-11-20T01:28:22;98329.16;;;-5.93;92.76
66547;BME280;53400;50.364;14.874;2022-11-20T01:30:49;98327.44;;;-5.67;90.78
66547;BME280;53400;50.364;14.874;2022-11-20T01:33:15;98330.72;;;-5.83;91.71
66547;BME280;53400;50.364;14.874;2022-11-20T01:35:41;98323.78;;;-5.92;92.51
66547;BME280;53400;50.364;14.874;2022-11-20T01:38:07;98315.22;;;-6.20;92.53
66547;BME280;53400;50.364;14.874;2022-11-20T01:40:33;98315.13;;;-6.28;94.64
66547;BME280;53400;50.364;14.874;2022-11-20T01:43:12;98305.16;;;-6.33;95.01
66547;BME280;53400;50.364;14.874;2022-11-20T01:48:45;98296.91;;;-6.10;94.86
66547;BME280;53400;50.364;14.874;2022-11-20T01:51:19;98301.66;;;-5.88;92.89
66547;BME280;53400;50.364;14.874;2022-11-20T01:53:46;98293.13;;;-5.98;93.20
66547;BME280;53400;50.364;14.874;2022-11-20T01:56:13;98301.59;;;-6.14;93.89
66547;BME280;53400;50.364;14.874;2022-11-20T01:58:44;98295.38;;;-6.31;94.13
66547;BME280;53400;50.364;14.874;2022-11-20T02:01:13;98296.47;;;-6.33;93.69
66547;BME280;53400;50.364;14.874;2022-11-20T02:03:40;98286.06;;;-6.33;94.18
66547;BME280;53400;50.364;14.874;2022-11-20T02:06:11;98292.59;;;-6.47;93.80
66547;BME280;53400;50.364;14.874;2022-11-20T02:08:38;98292.00;;;-6.41;93.33
66547;BME280;53400;50.364;14.874;2022-11-20T02:11:04;98291.66;;;-6.56;93.44
66547;BME280;53400;50.364;14.874;2022-11-20T02:13:30;98297.22;;;-6.41;93.37
66547;BME280;53400;50.364;14.874;2022-11-20T02:16:10;98289.31;;;-6.49;93.37
66547;BME280;53400;50.364;14.874;2022-11-20T02:18:39;98299.25;;;-6.62;93.31
66547;BME280;53400;50.364;14.874;2022-11-20T02:21:08;98297.91;;;-6.76;93.02
66547;BME280;53400;50.364;14.874;2022-11-20T02:23:38;98293.53;;;-6.76;93.30
66547;BME280;53400;50.364;14.874;2022-11-20T02:26:09;98295.97;;;-6.64;93.75
66547;BME280;53400;50.364;14.874;2022-11-20T02:28:37;98297.50;;;-6.44;92.99
66547;BME280;53400;50.364;14.874;2022-11-20T02:31:02;98290.28;;;-6.05;89.77
66547;BME280;53400;50.364;14.874;2022-11-20T02:33:29;98283.00;;;-5.57;86.50
66547;BME280;53400;50.364;14.874;2022-11-20T02:35:54;98276.53;;;-5.71;85.41
66547;BME280;53400;50.364;14.874;2022-11-20T02:38:20;98276.38;;;-5.69;85.89
66547;BME280;53400;50.364;14.874;2022-11-20T02:40:46;98276.47;;;-5.79;87.03
66547;BME280;53400;50.364;14.874;2022-11-20T02:43:15;98281.41;;;-6.12;89.48
66547;BME280;53400;50.364;14.874;2022-11-20T02:45:41;98285.78;;;-6.12;90.95
66547;BME280;53400;50.364;14.874;2022-11-20T02:48:07;98289.47;;;-6.05;90.86
66547;BME280;53400;50.364;14.874;2022-11-20T02:50:33;98288.03;;;-6.00;89.39
66547;BME280;53400;50.364;14.874;2022-11-20T02:53:01;98282.16;;;-6.02;87.88
66547;BME280;53400;50.364;14.874;2022-11-20T02:55:27;98277.66;;;-6.27;88.66
66547;BME280;53400;50.364;14.874;2022-11-20T02:57:53;98271.22;;;-6.51;90.87
66547;BME280;53400;50.364;14.874;2022-11-20T03:00:21;98280.72;;;-6.59;91.07
66547;BME280;53400;50.364;14.874;2022-11-20T03:02:47;98278.69;;;-6.65;92.09
66547;BME280;53400;50.364;14.874;2022-11-20T03:05:13;98281.66;;;-6.60;92.30
66547;BME280;53400;50.364;14.874;2022-11-20T03:07:39;98281.38;;;-6.57;91.68
66547;BME280;53400;50.364;14.874;2022-11-20T03:10:06;98271.16;;;-6.68;92.44
66547;BME280;53400;50.364;14.874;2022-11-20T03:12:32;98273.81;;;-6.78;94.10
66547;BME280;53400;50.364;14.874;2022-11-20T03:14:58;98274.06;;;-6.72;93.02
66547;BME280;53400;50.364;14.874;2022-11-20T03:17:25;98274.19;;;-6.46;93.34
66547;BME280;53400;50.364;14.874;2022-11-20T03:19:51;98274.16;;;-6.36;92.78
66547;BME280;53400;50.364;14.874;2022-11-20T03:22:17;98276.13;;;-6.20;91.26
66547;BME280;53400;50.364;14.874;2022-11-20T03:24:43;98280.56;;;-6.30;90.69
66547;BME280;53400;50.364;14.874;2022-11-20T03:27:09;98283.59;;;-6.35;92.40
66547;BME280;53400;50.364;14.874;2022-11-20T03:29:35;98276.31;;;-6.31;92.82
66547;BME280;53400;50.364;14.874;2022-11-20T03:32:01;98274.31;;;-6.19;92.22
66547;BME280;53400;50.364;14.874;2022-11-20T03:34:28;98281.94;;;-6.08;92.20
66547;BME280;53400;50.364;14.874;2022-11-20T03:36:54;98284.81;;;-6.29;93.28
66547;BME280;53400;50.364;14.874;2022-11-20T03:39:20;98286.59;;;-6.30;93.72
66547;BME280;53400;50.364;14.874;2022-11-20T03:41:46;98283.25;;;-6.22;94.37
66547;BME280;53400;50.364;14.874;2022-11-20T03:44:13;98281.00;;;-6.62;96.23
66547;BME280;53400;50.364;14.874;2022-11-20T03:46:39;98284.59;;;-6.73;98.55
66547;BME280;53400;50.364;14.874;2022-11-20T03:49:06;98279.59;;;-6.84;99.79
66547;BME280;53400;50.364;14.874;2022-11-20T03:51:34;98283.75;;;-6.64;99.11
66547;BME280;53400;50.364;14.874;2022-11-20T03:54:02;98279.56;;;-6.47;99.74
66547;BME280;53400;50.364;14.874;2022-11-20T03:56:30;98281.72;;;-5.97;97.37
66547;BME280;53400;50.364;14.874;2022-11-20T03:58:56;98283.19;;;-6.12;96.29
66547;BME280;53400;50.364;14.874;2022-11-20T04:01:25;98282.97;;;-6.19;97.61
66547;BME280;53400;50.364;14.874;2022-11-20T04:03:52;98288.91;;;-5.91;97.08
66547;BME280;53400;50.364;14.874;2022-11-20T04:06:20;98285.41;;;-5.64;94.09
66547;BME280;53400;50.364;14.874;2022-11-20T04:08:48;98279.66;;;-5.49;91.84
66547;BME280;53400;50.364;14.874;2022-11-20T04:11:16;98284.66;;;-5.56;91.31
66547;BME280;53400;50.364;14.874;2022-11-20T04:13:46;98281.78;;;-5.45;89.81
66547;BME280;53400;50.364;14.874;2022-11-20T04:16:13;98285.66;;;-6.11;93.84
66547;BME280;53400;50.364;14.874;2022-11-20T04:18:39;98286.41;;;-6.01;94.65
66547;BME280;53400;50.364;14.874;2022-11-20T04:21:06;98292.19;;;-5.89;94.71
66547;BME280;53400;50.364;14.874;2022-11-20T04:23:32;98282.19;;;-5.76;93.19
66547;BME280;53400;50.364;14.874;2022-11-20T04:26:03;98282.56;;;-5.70;93.04
66547;BME280;53400;50.364;14.874;2022-11-20T04:28:29;98282.16;;;-5.84;94.57
66547;BME280;53400;50.364;14.874;2022-11-20T04:31:02;98285.56;;;-6.19;97.75
66547;BME280;53400;50.364;14.874;2022-11-20T04:33:28;98281.75;;;-5.71;95.30
66547;BME280;53400;50.364;14.874;2022-11-20T04:35:54;98274.25;;;-5.74;95.07
66547;BME280;53400;50.364;14.874;2022-11-20T04:38:20;98271.16;;;-5.51;93.74
66547;BME280;53400;50.364;14.874;2022-11-20T04:40:46;98273.53;;;-5.40;92.66
66547;BME280;53400;50.364;14.874;2022-11-20T04:43:13;98274.94;;;-5.46;93.00
66547;BME280;53400;50.364;14.874;2022-11-20T04:45:39;98273.66;;;-5.42;92.74
66547;BME280;53400;50.364;14.874;2022-11-20T04:48:05;98274.38;;;-5.58;92.89
66547;BME280;53400;50.364;14.874;2022-11-20T04:50:31;98285.38;;;-4.25;100.00
66547;BME280;53400;50.364;14.874;2022-11-20T04:52:57;98283.63;;;-4.59;100.00
66547;BME280;53400;50.364;14.874;2022-11-20T04:55:25;98265.59;;;-5.04;100.00
66547;BME280;53400;50.364;14.874;2022-11-20T04:57:51;98270.13;;;-5.33;100.00
66547;BME280;53400;50.364;14.874;2022-11-20T05:00:18;98269.75;;;-5.64;100.00
66547;BME280;53400;50.364;14.874;2022-11-20T05:02:44;98276.38;;;-5.51;100.00
66547;BME280;53400;50.364;14.874;2022-11-20T05:05:10;98270.50;;;-5.54;99.39
66547;BME280;53400;50.364;14.874;2022-11-20T05:07:36;98271.78;;;-5.32;99.14
66547;BME280;53400;50.364;14.874;2022-11-20T05:10:03;98262.28;;;-5.59;98.19
66547;BME280;53400;50.364;14.874;2022-11-20T05:12:29;98258.38;;;-5.81;98.27
66547;BME280;53400;50.364;14.874;2022-11-20T05:14:55;98253.22;;;-5.90;99.01
66547;BME280;53400;50.364;14.874;2022-11-20T05:17:22;98257.84;;;-5.84;99.47
66547;BME280;53400;50.364;14.874;2022-11-20T05:19:48;98256.06;;;-5.84;99.64
66547;BME280;53400;50.364;14.874;2022-11-20T05:22:14;98253.38;;;-5.74;99.82
66547;BME280;53400;50.364;14.874;2022-11-20T05:24:40;98249.13;;;-5.75;99.61
66547;BME280;53400;50.364;14.874;2022-11-20T05:27:06;98246.44;;;-5.39;96.85
66547;BME280;53400;50.364;14.874;2022-11-20T05:29:32;98252.34;;;-5.37;95.92
66547;BME280;53400;50.364;14.874;2022-11-20T05:31:58;98241.03;;;-5.46;96.12
66547;BME280;53400;50.364;14.874;2022-11-20T05:34:28;98250.13;;;-5.94;99.05
66547;BME280;53400;50.364;14.874;2022-11-20T05:36:54;98243.72;;;-6.17;100.00
66547;BME280;53400;50.364;14.874;2022-11-20T05:39:20;98252.50;;;-6.01;100.00
66547;BME280;53400;50.364;14.874;2022-11-20T05:41:46;98246.38;;;-5.91;100.00
66547;BME280;53400;50.364;14.874;2022-11-20T05:44:32;98245.97;;;-5.79;100.00
66547;BME280;53400;50.364;14.874;2022-11-20T05:46:58;98251.75;;;-5.75;100.00
66547;BME280;53400;50.364;14.874;2022-11-20T05:49:25;98237.19;;;-5.60;99.55
66547;BME280;53400;50.364;14.874;2022-11-20T05:51:51;98244.84;;;-5.14;99.28
66547;BME280;53400;50.364;14.874;2022-11-20T05:54:17;98243.81;;;-4.87;96.69
66547;BME280;53400;50.364;14.874;2022-11-20T05:56:43;98253.53;;;-4.71;94.42
66547;BME280;53400;50.364;14.874;2022-11-20T05:59:09;98259.34;;;-4.86;94.40
66547;BME280;53400;50.364;14.874;2022-11-20T06:01:35;98254.00;;;-4.76;93.28
66547;BME280;53400;50.364;14.874;2022-11-20T06:04:02;98247.94;;;-4.76;92.62
66547;BME280;53400;50.364;14.874;2022-11-20T06:06:29;98253.63;;;-4.89;93.56
66547;BME280;53400;50.364;14.874;2022-11-20T06:08:55;98240.06;;;-4.85;94.02
66547;BME280;53400;50.364;14.874;2022-11-20T06:11:21;98240.34;;;-4.96;93.64
66547;BME280;53400;50.364;14.874;2022-11-20T06:13:48;98240.44;;;-5.14;95.21
66547;BME280;53400;50.364;14.874;2022-11-20T06:16:15;98240.66;;;-4.99;95.70
66547;BME280;53400;50.364;14.874;2022-11-20T06:18:42;98233.53;;;-5.23;94.72
66547;BME280;53400;50.364;14.874;2022-11-20T06:21:09;98241.66;;;-5.26;96.41
66547;BME280;53400;50.364;14.874;2022-11-20T06:23:37;98236.56;;;-5.27;97.04
66547;BME280;53400;50.364;14.874;2022-11-20T06:26:04;98235.59;;;-5.00;96.63
66547;BME280;53400;50.364;14.874;2022-11-20T06:28:31;98238.44;;;-4.86;95.28
66547;BME280;53400;50.364;14.874;2022-11-20T06:30:57;98238.19;;;-4.66;94.32
66547;BME280;53400;50.364;14.874;2022-11-20T06:33:23;98243.28;;;-4.99;94.42
66547;BME280;53400;50.364;14.874;2022-11-20T06:35:49;98222.34;;;-5.33;96.02
66547;BME280;53400;50.364;14.874;2022-11-20T06:38:15;98220.97;;;-5.45;97.58
66547;BME280;53400;50.364;14.874;2022-11-20T06:40:43;98219.13;;;-5.53;99.43
66547;BME280;53400;50.364;14.874;2022-11-20T06:43:09;98226.19;;;-5.45;99.26
66547;BME280;53400;50.364;14.874;2022-11-20T06:45:35;98225.22;;;-5.44;99.87
66547;BME280;53400;50.364;14.874;2022-11-20T06:48:02;98226.50;;;-5.66;100.00
66547;BME280;53400;50.364;14.874;2022-11-20T06:50:28;98238.28;;;-5.44;100.00
66547;BME280;53400;50.364;14.874;2022-11-20T06:52:55;98241.00;;;-4.94;99.96
66547;BME280;53400;50.364;14.874;2022-11-20T06:55:20;98237.34;;;-5.09;99.14
66547;BME280;53400;50.364;14.874;2022-11-20T06:57:48;98240.22;;;-5.20;98.35
66547;BME280;53400;50.364;14.874;2022-11-20T07:00:14;98235.00;;;-5.20;98.81
66547;BME280;53400;50.364;14.874;2022-11-20T07:02:40;98235.66;;;-4.84;97.58
66547;BME280;53400;50.364;14.874;2022-11-20T07:05:06;98229.25;;;-4.55;96.40
66547;BME280;53400;50.364;14.874;2022-11-20T07:07:32;98232.31;;;-5.02;96.68
66547;BME280;53400;50.364;14.874;2022-11-20T07:09:58;98233.34;;;-5.21;96.91
66547;BME280;53400;50.364;14.874;2022-11-20T07:12:24;98232.66;;;-5.32;98.76
66547;BME280;53400;50.364;14.874;2022-11-20T07:14:51;98235.25;;;-5.32;99.01
66547;BME280;53400;50.364;14.874;2022-11-20T07:17:18;98248.53;;;-4.91;97.71
66547;BME280;53400;50.364;14.874;2022-11-20T07:19:43;98237.44;;;-5.19;98.81
66547;BME280;53400;50.364;14.874;2022-11-20T07:22:09;98237.06;;;-5.32;100.00
66547;BME280;53400;50.364;14.874;2022-11-20T07:24:35;98230.31;;;-5.09;99.71
66547;BME280;53400;50.364;14.874;2022-11-20T07:27:01;98230.22;;;-5.25;100.00
66547;BME280;53400;50.364;14.874;2022-11-20T07:29:27;98229.91;;;-5.22;100.00
66547;BME280;53400;50.364;14.874;2022-11-20T07:31:54;98228.53;;;-5.34;100.00
66547;BME280;53400;50.364;14.874;2022-11-20T07:34:21;98219.94;;;-5.26;100.00
66547;BME280;53400;50.364;14.874;2022-11-20T07:36:47;98215.31;;;-5.33;100.00
66547;BME280;53400;50.364;14.874;2022-11-20T07:39:13;98213.56;;;-5.32;100.00
66547;BME280;53400;50.364;14.874;2022-11-20T07:41:39;98215.81;;;-5.11;100.00
66547;BME280;53400;50.364;14.874;2022-11-20T07:44:05;98213.66;;;-4.73;100.00
66547;BME280;53400;50.364;14.874;2022-11-20T07:46:31;98226.38;;;-4.78;100.00
66547;BME280;53400;50.364;14.874;2022-11-20T07:48:58;98217.91;;;-4.72;99.25
66547;BME280;53400;50.364;14.874;2022-11-20T07:51:24;98228.94;;;-4.95;100.00
66547;BME280;53400;50.364;14.874;2022-11-20T07:53:51;98222.78;;;-5.12;100.00
66547;BME280;53400;50.364;14.874;2022-11-20T07:56:17;98218.88;;;-5.16;100.00
66547;BME280;53400;50.364;14.874;2022-11-20T07:58:43;98223.44;;;-4.83;100.00
66547;BME280;53400;50.364;14.874;2022-11-20T08:01:09;98216.59;;;-4.76;100.00
66547;BME280;53400;50.364;14.874;2022-11-20T08:03:36;98228.91;;;-4.61;99.49
66547;BME280;53400;50.364;14.874;2022-11-20T08:06:05;98233.53;;;-5.15;100.00
66547;BME280;53400;50.364;14.874;2022-11-20T08:08:31;98240.63;;;-4.73;100.00
66547;BME280;53400;50.364;14.874;2022-11-20T08:10:57;98242.44;;;-4.06;100.00
66547;BME280;53400;50.364;14.874;2022-11-20T08:13:42;98242.59;;;-3.18;100.00
66547;BME280;53400;50.364;14.874;2022-11-20T08:16:26;98232.78;;;-3.16;100.00
66547;BME280;53400;50.364;14.874;2022-11-20T08:18:52;98228.50;;;-2.61;100.00
66547;BME280;53400;50.364;14.874;2022-11-20T08:21:20;98235.16;;;-2.50;100.00
66547;BME280;53400;50.364;14.874;2022-11-20T08:23:46;98231.38;;;-2.79;97.63
66547;BME280;53400;50.364;14.874;2022-11-20T08:26:12;98232.97;;;-3.42;95.81
66547;BME280;53400;50.364;14.874;2022-11-20T08:28:38;98235.59;;;-3.50;96.57
66547;BME280;53400;50.364;14.874;2022-11-20T08:31:04;98225.97;;;-3.74;96.43
66547;BME280;53400;50.364;14.874;2022-11-20T08:33:30;98232.66;;;-3.72;97.17
66547;BME280;53400;50.364;14.874;2022-11-20T08:35:59;98232.31;;;-4.09;97.01
66547;BME280;53400;50.364;14.874;2022-11-20T08:38:27;98221.75;;;-4.50;99.51
66547;BME280;53400;50.364;14.874;2022-11-20T08:40:56;98231.31;;;-4.17;100.00
66547;BME280;53400;50.364;14.874;2022-11-20T08:43:40;98210.56;;;-4.02;98.66
66547;BME280;53400;50.364;14.874;2022-11-20T08:46:06;98219.66;;;-4.39;99.32
66547;BME280;53400;50.364;14.874;2022-11-20T08:48:32;98225.56;;;-4.28;100.00
66547;BME280;53400;50.364;14.874;2022-11-20T08:50:58;98237.00;;;-4.21;100.00
66547;BME280;53400;50.364;14.874;2022-11-20T08:53:24;98228.69;;;-4.08;99.46
66547;BME280;53400;50.364;14.874;2022-11-20T08:55:52;98217.75;;;-3.96;99.75
66547;BME280;53400;50.364;14.874;2022-11-20T08:58:18;98220.22;;;-3.94;99.68
66547;BME280;53400;50.364;14.874;2022-11-20T09:00:44;98212.03;;;-3.75;99.58
66547;BME280;53400;50.364;14.874;2022-11-20T09:03:10;98213.84;;;-3.75;97.70
66547;BME280;53400;50.364;14.874;2022-11-20T09:05:38;98203.69;;;-4.03;99.12
66547;BME280;53400;50.364;14.874;2022-11-20T09:08:04;98200.94;;;-4.01;100.00
66547;BME280;53400;50.364;14.874;2022-11-20T09:10:30;98196.34;;;-4.16;99.73
66547;BME280;53400;50.364;14.874;2022-11-20T09:12:57;98203.38;;;-4.16;100.00
66547;BME280;53400;50.364;14.874;2022-11-20T09:15:24;98203.97;;;-4.47;100.00
66547;BME280;53400;50.364;14.874;2022-11-20T09:17:51;98204.75;;;-4.54;100.00
66547;BME280;53400;50.364;14.874;2022-11-20T09:20:17;98210.09;;;-4.64;100.00
66547;BME280;53400;50.364;14.874;2022-11-20T09:22:44;98209.00;;;-4.53;100.00
66547;BME280;53400;50.364;14.874;2022-11-20T09:25:10;98226.38;;;-4.28;100.00
66547;BME280;53400;50.364;14.874;2022-11-20T09:27:36;98206.81;;;-3.99;100.00
66547;BME280;53400;50.364;14.874;2022-11-20T09:30:04;98202.88;;;-4.20;100.00
66547;BME280;53400;50.364;14.874;2022-11-20T09:32:30;98197.13;;;-4.31;100.00
66547;BME280;53400;50.364;14.874;2022-11-20T09:34:57;98192.56;;;-4.21;100.00
66547;BME280;53400;50.364;14.874;2022-11-20T09:37:23;98185.41;;;-3.95;100.00
66547;BME280;53400;50.364;14.874;2022-11-20T09:39:49;98190.28;;;-4.08;100.00
66547;BME280;53400;50.364;14.874;2022-11-20T09:42:26;98188.00;;;-3.95;100.00
66547;BME280;53400;50.364;14.874;2022-11-20T09:45:08;98189.97;;;-3.72;100.00
66547;BME280;53400;50.364;14.874;2022-11-20T09:47:45;98189.81;;;-3.79;100.00
66547;BME280;53400;50.364;14.874;2022-11-20T09:50:26;98181.44;;;-3.58;100.00
66547;BME280;53400;50.364;14.874;2022-11-20T09:53:04;98176.09;;;-3.89;100.00
66547;BME280;53400;50.364;14.874;2022-11-20T09:55:35;98181.31;;;-3.97;100.00
66547;BME280;53400;50.364;14.874;2022-11-20T09:58:05;98171.50;;;-3.95;100.00
66547;BME280;53400;50.364;14.874;2022-11-20T10:00:34;98169.19;;;-3.65;100.00
66547;BME280;53400;50.364;14.874;2022-11-20T10:03:03;98169.19;;;-3.57;100.00
66547;BME280;53400;50.364;14.874;2022-11-20T10:05:37;98160.69;;;-3.84;100.00
66547;BME280;53400;50.364;14.874;2022-11-20T10:08:12;98160.69;;;-3.76;100.00
66547;BME280;53400;50.364;14.874;2022-11-20T10:10:44;98158.22;;;-3.61;100.00
66547;BME280;53400;50.364;14.874;2022-11-20T10:13:23;98153.47;;;-3.65;100.00
66547;BME280;53400;50.364;14.874;2022-11-20T10:16:15;98149.53;;;-3.45;100.00
66547;BME280;53400;50.364;14.874;2022-11-20T10:18:53;98144.63;;;-3.40;100.00
66547;BME280;53400;50.364;14.874;2022-11-20T10:21:30;98129.72;;;-3.48;100.00
66547;BME280;53400;50.364;14.874;2022-11-20T10:24:36;98140.50;;;-3.34;100.00
66547;BME280;53400;50.364;14.874;2022-11-20T10:27:19;98138.53;;;-3.32;100.00
66547;BME280;53400;50.364;14.874;2022-11-20T10:29:58;98142.59;;;-3.30;100.00
66547;BME280;53400;50.364;14.874;2022-11-20T10:32:36;98145.88;;;-3.19;100.00
66547;BME280;53400;50.364;14.874;2022-11-20T10:35:09;98138.03;;;-3.36;100.00
66547;BME280;53400;50.364;14.874;2022-11-20T10:37:42;98130.22;;;-3.05;100.00
66547;BME280;53400;50.364;14.874;2022-11-20T10:40:20;98127.09;;;-2.92;100.00
66547;BME280;53400;50.364;14.874;2022-11-20T10:42:50;98132.72;;;-3.11;100.00
66547;BME280;53400;50.364;14.874;2022-11-20T10:45:31;98131.16;;;-2.89;100.00
66547;BME280;53400;50.364;14.874;2022-11-20T10:48:10;98133.31;;;-2.93;99.93
66547;BME280;53400;50.364;14.874;2022-11-20T10:50:40;98126.69;;;-2.81;99.09
66547;BME280;53400;50.364;14.874;2022-11-20T10:53:18;98122.00;;;-2.93;98.88
66547;BME280;53400;50.364;14.874;2022-11-20T10:55:50;98130.63;;;-2.77;100.00
66547;BME280;53400;50.364;14.874;2022-11-20T10:58:29;98138.75;;;-2.40;98.30
66547;BME280;53400;50.364;14.874;2022-11-20T11:01:04;98128.19;;;-2.55;98.74
66547;BME280;53400;50.364;14.874;2022-11-20T11:03:32;98116.34;;;-2.05;95.93
66547;BME280;53400;50.364;14.874;2022-11-20T11:06:03;98116.25;;;-2.58;97.07
66547;BME280;53400;50.364;14.874;2022-11-20T11:08:35;98111.97;;;-2.82;97.33
66547;BME280;53400;50.364;14.874;2022-11-20T11:11:12;98109.34;;;-2.82;98.67
66547;BME280;53400;50.364;14.874;2022-11-20T11:13:41;98108.81;;;-2.77;97.47
66547;BME280;53400;50.364;14.874;2022-11-20T11:16:20;98107.38;;;-2.80;99.04
66547;BME280;53400;50.364;14.874;2022-11-20T11:18:47;98107.88;;;-2.84;98.68
66547;BME280;53400;50.364;14.874;2022-11-20T11:21:21;98109.56;;;-2.91;99.50
66547;BME280;53400;50.364;14.874;2022-11-20T11:23:57;98113.97;;;-2.61;99.65
66547;BME280;53400;50.364;14.874;2022-11-20T11:26:23;98108.28;;;-2.18;98.37
66547;BME280;53400;50.364;14.874;2022-11-20T11:28:54;98110.53;;;-2.38;96.82
66547;BME280;53400;50.364;14.874;2022-11-20T11:31:25;98106.19;;;-2.77;99.87
66547;BME280;53400;50.364;14.874;2022-11-20T11:34:03;98106.63;;;-1.81;100.00
66547;BME280;53400;50.364;14.874;2022-11-20T11:36:30;98102.03;;;-1.50;100.00
66547;BME280;53400;50.364;14.874;2022-11-20T11:38:59;98104.84;;;-2.04;98.86
66547;BME280;53400;50.364;14.874;2022-11-20T11:41:28;98096.88;;;-2.11;100.00
66547;BME280;53400;50.364;14.874;2022-11-20T11:43:57;98091.69;;;-2.65;99.16
66547;BME280;53400;50.364;14.874;2022-11-20T11:46:49;98095.09;;;-2.79;100.00
66547;BME280;53400;50.364;14.874;2022-11-20T11:49:19;98086.06;;;-2.77;100.00
66547;BME280;53400;50.364;14.874;2022-11-20T11:51:56;98087.41;;;-2.58;100.00
66547;BME280;53400;50.364;14.874;2022-11-20T11:54:30;98079.84;;;-2.84;100.00
66547;BME280;53400;50.364;14.874;2022-11-20T11:57:00;98079.44;;;-2.64;100.00
66547;BME280;53400;50.364;14.874;2022-11-20T11:59:38;98072.19;;;-2.85;100.00
66547;BME280;53400;50.364;14.874;2022-11-20T12:02:20;98076.66;;;-2.71;100.00
66547;BME280;53400;50.364;14.874;2022-11-20T12:04:53;98066.72;;;-2.75;100.00
66547;BME280;53400;50.364;14.874;2022-11-20T12:07:25;98068.16;;;-2.50;100.00
66547;BME280;53400;50.364;14.874;2022-11-20T12:09:54;98070.34;;;-2.31;100.00
66547;BME280;53400;50.364;14.874;2022-11-20T12:12:27;98074.13;;;-2.33;100.00
66547;BME280;53400;50.364;14.874;2022-11-20T12:14:56;98081.59;;;-2.07;99.05
66547;BME280;53400;50.364;14.874;2022-11-20T12:17:24;98074.66;;;-2.00;97.96
66547;BME280;53400;50.364;14.874;2022-11-20T12:19:51;98074.31;;;-1.97;97.46
66547;BME280;53400;50.364;14.874;2022-11-20T12:22:26;98084.13;;;-1.76;97.25
66547;BME280;53400;50.364;14.874;2022-11-20T12:25:01;98088.19;;;-1.58;96.21
66547;BME280;53400;50.364;14.874;2022-11-20T12:27:41;98070.44;;;-1.71;95.90
66547;BME280;53400;50.364;14.874;2022-11-20T12:30:11;98070.00;;;-1.45;94.53
66547;BME280;53400;50.364;14.874;2022-11-20T12:32:52;98062.84;;;-1.51;93.21
66547;BME280;53400;50.364;14.874;2022-11-20T12:35:36;98059.28;;;-2.03;93.31
66547;BME280;53400;50.364;14.874;2022-11-20T12:41:02;98044.97;;;-2.38;97.69
66547;BME280;53400;50.364;14.874;2022-11-20T12:43:37;98039.22;;;-2.57;100.00
66547;BME280;53400;50.364;14.874;2022-11-20T12:46:32;98026.13;;;-2.57;100.00
66547;BME280;53400;50.364;14.874;2022-11-20T12:49:27;98019.28;;;-2.43;100.00
66547;BME280;53400;50.364;14.874;2022-11-20T12:52:12;98021.63;;;-2.71;100.00
66547;BME280;53400;50.364;14.874;2022-11-20T12:55:08;98025.00;;;-2.62;100.00
66547;BME280;53400;50.364;14.874;2022-11-20T12:57:44;98021.16;;;-2.51;100.00
66547;BME280;53400;50.364;14.874;2022-11-20T13:00:25;98027.47;;;-2.61;100.00
66547;BME280;53400;50.364;14.874;2022-11-20T13:03:21;98026.16;;;-2.42;100.00
66547;BME280;53400;50.364;14.874;2022-11-20T13:06:00;98024.94;;;-2.31;100.00